M I D A S
Marine Information and Data Acquisition System
Tripno 858 of the Zeeleeuw from 2005-03-08 07:18:40 to 2005-03-08 16:14:43
Back to CruiseResearch ActivitiesStationsMapUnderway DataData graphs

EquipmentUnitsComment
TimeDGPSUTC
LatitudeDGPSDM.mWGS84
LongitudeDGPSDM.mWGS84
HeadingGyrodeg 
SOGDGPSknotsSpeed over ground
COGDGPSdegCourse over ground
DepthEcho soundermeters200 kHz
Missing or incorrect values are displayed as -999
Navigation data collected by the RV Zeeleeuw from 2005-03-08 07:19:27 to 2005-03-08 16:24:33
                                                                                    Next 1000 lines
Time Latitude Longitude Heading SOG COG Depth
2005-03-08 07:19:37 51°13.598 2°56.086 115.5 2.1 294 -999
2005-03-08 07:19:43 51°13.6 2°56.08 116.3 2.6 295 -999
2005-03-08 07:19:48 51°13.602 2°56.074 116.8 2.8 295 -999
2005-03-08 07:19:52 51°13.604 2°56.068 117.2 3.2 295 -999
2005-03-08 07:19:57 51°13.606 2°56.061 117.6 3.3 294 -999
2005-03-08 07:20:02 51°13.608 2°56.053 117.8 3.7 295 -999
2005-03-08 07:20:07 51°13.61 2°56.046 117.9 3.7 295 -999
2005-03-08 07:20:12 51°13.613 2°56.038 117.9 3.9 296 -999
2005-03-08 07:20:17 51°13.615 2°56.03 118.3 3.9 294 -999
2005-03-08 07:20:22 51°13.617 2°56.021 118.8 4.1 295 -999
2005-03-08 07:20:27 51°13.619 2°56.013 119.7 4.2 295 -999
2005-03-08 07:20:32 51°13.622 2°56.004 120.7 4.2 295 -999
2005-03-08 07:20:38 51°13.625 2°55.995 121.7 4.4 296 -999
2005-03-08 07:20:42 51°13.627 2°55.986 122.6 4.4 296 -999
2005-03-08 07:20:47 51°13.63 2°55.979 123.8 4.4 296 -999
2005-03-08 07:20:52 51°13.634 2°55.969 125.4 4.7 299 -999
2005-03-08 07:20:57 51°13.638 2°55.96 126.6 4.7 301 -999
2005-03-08 07:21:02 51°13.641 2°55.951 127.4 4.7 301 -999
2005-03-08 07:21:07 51°13.645 2°55.942 128.3 4.8 305 -999
2005-03-08 07:21:12 51°13.649 2°55.934 128.7 4.8 305 -999
2005-03-08 07:21:18 51°13.654 2°55.924 128.9 4.9 306 -999
2005-03-08 07:21:23 51°13.658 2°55.915 128.8 4.9 307 -999
2005-03-08 07:21:27 51°13.661 2°55.907 128.4 5 306 -999
2005-03-08 07:21:32 51°13.665 2°55.898 127.7 5 306 -999
2005-03-08 07:21:37 51°13.669 2°55.889 126.4 5 305 -999
2005-03-08 07:21:42 51°13.673 2°55.88 125.2 4.9 304 -999
2005-03-08 07:21:47 51°13.676 2°55.872 124.1 4.9 304 -999
2005-03-08 07:21:52 51°13.68 2°55.863 122.2 4.6 302 -999
2005-03-08 07:21:58 51°13.683 2°55.854 121 4.5 300 -999
2005-03-08 07:22:03 51°13.686 2°55.845 119.4 4.4 299 -999
2005-03-08 07:22:07 51°13.688 2°55.838 117.6 4.1 297 -999
2005-03-08 07:22:12 51°13.691 2°55.83 115.7 4 296 -999
2005-03-08 07:22:17 51°13.692 2°55.822 113.4 3.9 294 -999
2005-03-08 07:22:21 51°13.694 2°55.816 112 3.9 293 5.4
2005-03-08 07:22:27 51°13.696 2°55.806 110.1 3.9 293 10.7
2005-03-08 07:22:32 51°13.698 2°55.797 108.7 4.1 288 -999
2005-03-08 07:22:37 51°13.699 2°55.788 106.8 4.1 286 -999
2005-03-08 07:22:42 51°13.701 2°55.779 105.2 4.2 284 -999
2005-03-08 07:22:47 51°13.702 2°55.771 103.7 4.2 283 -999
2005-03-08 07:22:52 51°13.703 2°55.762 102.7 4 281 -999
2005-03-08 07:22:57 51°13.704 2°55.754 101.6 3.8 280 -999
2005-03-08 07:23:02 51°13.704 2°55.748 100.9 3.1 279 -999
2005-03-08 07:23:07 51°13.704 2°55.743 99.1 2.8 278 -999
2005-03-08 07:23:12 51°13.704 2°55.741 95.8 1.7 276 5.5
2005-03-08 07:23:17 51°13.704 2°55.74 90.3 0.7 280 -999
2005-03-08 07:23:22 51°13.705 2°55.741 86 0.2 344 -999
2005-03-08 07:23:27 51°13.705 2°55.744 79.7 0.6 59 -999
2005-03-08 07:23:32 51°13.707 2°55.747 72.6 1.4 60 -999
2005-03-08 07:23:37 51°13.707 2°55.749 66.8 1.3 61 -999
2005-03-08 07:23:42 51°13.708 2°55.75 64.4 1.3 61 -999
2005-03-08 07:23:47 51°13.708 2°55.751 61.2 0.4 54 5.3
2005-03-08 07:23:51 51°13.708 2°55.75 58.7 0.2 56 5
2005-03-08 07:23:57 51°13.707 2°55.749 55.8 0.2 245 5
2005-03-08 07:24:02 51°13.706 2°55.746 54.1 0.9 228 6.7
2005-03-08 07:24:07 51°13.704 2°55.744 51.9 1.3 230 4.9
2005-03-08 07:24:11 51°13.703 2°55.742 50.5 1.8 225 9.7
2005-03-08 07:24:17 51°13.701 2°55.738 49.3 1.8 228 -999
2005-03-08 07:24:22 51°13.699 2°55.735 48.6 1.7 224 -999
2005-03-08 07:24:27 51°13.698 2°55.734 48.5 1.6 225 -999
2005-03-08 07:24:33 51°13.698 2°55.734 47.5 0.2 197 -999
2005-03-08 07:24:37 51°13.699 2°55.735 43.3 0.2 197 -999
2005-03-08 07:24:42 51°13.701 2°55.737 36.6 1.5 32 -999
2005-03-08 07:24:47 51°13.705 2°55.739 27.1 2.1 22 -999
2005-03-08 07:24:51 51°13.708 2°55.739 20.3 2.9 10 5.3
2005-03-08 07:24:57 51°13.714 2°55.739 10.6 3.4 1 5
2005-03-08 07:25:02 51°13.72 2°55.737 2.1 3.8 352 12.4
2005-03-08 07:25:07 51°13.725 2°55.733 351.1 4.2 347 11.2
2005-03-08 07:25:12 51°13.73 2°55.729 341.9 4.2 339 11
2005-03-08 07:25:17 51°13.735 2°55.725 337.3 4.2 339 10.7
2005-03-08 07:25:21 51°13.739 2°55.721 335.1 4 331 10.1
2005-03-08 07:25:27 51°13.744 2°55.716 333.4 4 331 9.9
2005-03-08 07:25:32 51°13.75 2°55.711 332.5 4.3 329 9.8
2005-03-08 07:25:37 51°13.756 2°55.705 332 4.3 329 9.9
2005-03-08 07:25:41 51°13.762 2°55.699 331.7 4.3 329 9.9
2005-03-08 07:25:47 51°13.77 2°55.691 331.3 5.8 327 10
2005-03-08 07:25:52 51°13.777 2°55.683 330.9 6.3 327 10
2005-03-08 07:25:56 51°13.784 2°55.676 330.6 6.7 327 10.1
2005-03-08 07:26:01 51°13.792 2°55.668 331.3 7 328 10
2005-03-08 07:26:07 51°13.803 2°55.658 332.4 7 328 10.2
2005-03-08 07:26:11 51°13.81 2°55.651 333.8 7.7 331 10
2005-03-08 07:26:17 51°13.822 2°55.641 335 8 332 10.1
2005-03-08 07:26:21 51°13.831 2°55.634 336.6 8.3 334 10.1
2005-03-08 07:26:27 51°13.845 2°55.624 337.5 8.3 334 10.1
2005-03-08 07:26:31 51°13.852 2°55.619 338.8 8.6 335 10.1
2005-03-08 07:26:37 51°13.866 2°55.609 339.2 8.6 335 9.9
2005-03-08 07:26:41 51°13.876 2°55.601 339.2 8.6 335 9.9
2005-03-08 07:26:47 51°13.889 2°55.592 339.6 8.6 335 9.8
2005-03-08 07:26:51 51°13.898 2°55.585 339.6 9.3 335 9.8
2005-03-08 07:26:57 51°13.912 2°55.574 339.1 9.3 334 9.8
2005-03-08 07:27:01 51°13.923 2°55.567 339.1 9.4 335 9.8
2005-03-08 07:27:07 51°13.936 2°55.557 339.4 9.5 336 9.7
2005-03-08 07:27:12 51°13.949 2°55.547 338.9 9.5 335 9.7
2005-03-08 07:27:17 51°13.961 2°55.539 339.3 9.6 336 10.1
2005-03-08 07:27:21 51°13.971 2°55.532 340.3 9.6 336 9.7
2005-03-08 07:27:27 51°13.984 2°55.522 340.3 9.6 337 -999
2005-03-08 07:27:32 51°13.998 2°55.513 338.9 9.6 337 9.7
2005-03-08 07:27:37 51°14.008 2°55.505 338.5 9.6 335 9.6
2005-03-08 07:27:41 51°14.019 2°55.497 338.7 9.6 336 9.6
2005-03-08 07:27:47 51°14.033 2°55.488 339.6 9.6 336 9.8
2005-03-08 07:27:52 51°14.045 2°55.479 339.8 9.6 336 9.8
2005-03-08 07:27:57 51°14.057 2°55.47 339.8 9.6 336 9.7
2005-03-08 07:28:01 51°14.067 2°55.463 339.6 9.6 336 9.6
2005-03-08 07:28:07 51°14.081 2°55.453 339.4 9.6 336 9.6
2005-03-08 07:28:11 51°14.09 2°55.446 339.3 9.6 336 9.6
2005-03-08 07:28:17 51°14.105 2°55.435 339.1 9.7 335 9.9
2005-03-08 07:28:21 51°14.116 2°55.427 338.9 9.7 335 9.9
2005-03-08 07:28:27 51°14.13 2°55.416 338.5 9.9 334 9.9
2005-03-08 07:28:31 51°14.14 2°55.407 337.9 10.1 333 10
2005-03-08 07:28:37 51°14.155 2°55.395 337 10.1 332 10.3
2005-03-08 07:28:42 51°14.169 2°55.382 335.7 10.4 331 9.9
2005-03-08 07:28:47 51°14.18 2°55.371 333.6 10.4 329 10.8
2005-03-08 07:28:52 51°14.193 2°55.357 332.7 10.5 328 -999
2005-03-08 07:28:57 51°14.204 2°55.344 330.6 10.6 326 10.5
2005-03-08 07:29:01 51°14.215 2°55.332 329.1 10.6 326 10.5
2005-03-08 07:29:07 51°14.228 2°55.316 327.8 10.7 323 9.9
2005-03-08 07:29:11 51°14.237 2°55.304 326.9 10.8 322 9.7
2005-03-08 07:29:17 51°14.251 2°55.285 325.9 10.9 321 9.7
2005-03-08 07:29:21 51°14.261 2°55.27 324.4 10.9 321 9.8
2005-03-08 07:29:27 51°14.273 2°55.251 321.7 10.9 321 9.8
2005-03-08 07:29:32 51°14.283 2°55.233 319.6 11.1 316 9.8
2005-03-08 07:29:37 51°14.294 2°55.215 317 11.2 312 9.8
2005-03-08 07:29:41 51°14.303 2°55.197 315.8 11.2 312 9.8
2005-03-08 07:29:47 51°14.314 2°55.176 314.2 11.3 309 9.9
2005-03-08 07:29:51 51°14.322 2°55.16 313.5 11.3 309 10
2005-03-08 07:29:57 51°14.333 2°55.136 312.5 11.3 308 9.8
2005-03-08 07:30:02 51°14.342 2°55.116 311.3 11.4 307 9.9
2005-03-08 07:30:07 51°14.352 2°55.096 311.2 11.4 307 9.8
2005-03-08 07:30:11 51°14.359 2°55.08 311.5 11.5 308 9.8
2005-03-08 07:30:17 51°14.371 2°55.055 311.1 11.4 307 9.8
2005-03-08 07:30:22 51°14.381 2°55.035 311.6 11.6 308 9.9
2005-03-08 07:30:26 51°14.391 2°55.017 312.8 11.6 310 9.9
2005-03-08 07:30:31 51°14.402 2°54.998 314.7 11.6 310 9.9
2005-03-08 07:30:37 51°14.415 2°54.976 316.4 11.6 310 9.9
2005-03-08 07:30:42 51°14.426 2°54.959 318 11.7 315 10
2005-03-08 07:30:47 51°14.437 2°54.941 320.3 11.9 315 10
2005-03-08 07:30:51 51°14.448 2°54.923 320.5 11.9 315 10
2005-03-08 07:30:57 51°14.462 2°54.903 320.6 12.3 316 9.9
2005-03-08 07:31:01 51°14.473 2°54.886 321.9 12.4 317 10
2005-03-08 07:31:06 51°14.486 2°54.867 322.7 12.7 317 9.9
2005-03-08 07:31:11 51°14.497 2°54.85 322.7 12.7 317 9.8
2005-03-08 07:31:17 51°14.513 2°54.826 322.2 12.7 317 9.8
2005-03-08 07:31:21 51°14.524 2°54.808 322.7 12.8 317 9.9
2005-03-08 07:31:27 51°14.538 2°54.785 322.6 12.8 314 9.9
2005-03-08 07:31:32 51°14.55 2°54.764 321.6 12.9 314 9.9
2005-03-08 07:31:37 51°14.562 2°54.744 320.8 12.9 314 9.9
2005-03-08 07:31:41 51°14.574 2°54.725 321.2 13 314 9.9
2005-03-08 07:31:47 51°14.587 2°54.703 321.5 13 314 9.8
2005-03-08 07:31:52 51°14.6 2°54.681 321.5 13 314 9.9
2005-03-08 07:31:57 51°14.613 2°54.66 321.4 13 314 9.9
2005-03-08 07:32:01 51°14.623 2°54.642 321.2 13.1 313 9.8
2005-03-08 07:32:07 51°14.637 2°54.619 320.3 13.1 313 9.8
2005-03-08 07:32:12 51°14.65 2°54.597 320 13.1 313 9.8
2005-03-08 07:32:17 51°14.662 2°54.576 319.7 13.1 313 9.7
2005-03-08 07:32:21 51°14.673 2°54.557 319.4 13 313 9.8
2005-03-08 07:32:27 51°14.686 2°54.533 319.3 13 313 9.9
2005-03-08 07:32:31 51°14.697 2°54.514 319.6 13.1 313 9.8
2005-03-08 07:32:37 51°14.712 2°54.489 319.7 13.2 313 9.8
2005-03-08 07:32:41 51°14.722 2°54.472 319.8 13.2 313 9.7
2005-03-08 07:32:47 51°14.736 2°54.448 320 13.2 313 9.7
2005-03-08 07:32:51 51°14.746 2°54.432 320 13.1 313 9.9
2005-03-08 07:32:57 51°14.76 2°54.406 319.8 13.2 313 9.7
2005-03-08 07:33:01 51°14.772 2°54.387 319.4 13.2 312 10.1
2005-03-08 07:33:07 51°14.785 2°54.363 319.3 13.1 312 9.7
2005-03-08 07:33:11 51°14.796 2°54.343 319.3 13.1 313 9.8
2005-03-08 07:33:17 51°14.81 2°54.321 320 13.1 313 9.9
2005-03-08 07:33:21 51°14.821 2°54.302 320.2 13.1 313 9.8
2005-03-08 07:33:27 51°14.835 2°54.279 320.4 13 313 9.9
2005-03-08 07:33:31 51°14.846 2°54.26 320.4 13.1 313 9.7
2005-03-08 07:33:37 51°14.86 2°54.236 320.2 13 313 9.7
2005-03-08 07:33:41 51°14.87 2°54.217 320.1 13.1 312 9.5
2005-03-08 07:33:47 51°14.883 2°54.193 318.9 13.1 312 9.5
2005-03-08 07:33:51 51°14.892 2°54.174 317.3 13.1 312 9.2
2005-03-08 07:33:57 51°14.905 2°54.147 316.2 13.1 309 9.2
2005-03-08 07:34:01 51°14.915 2°54.126 315.6 13.1 308 9.2
2005-03-08 07:34:07 51°14.926 2°54.102 315.2 13.1 307 9.3
2005-03-08 07:34:10 51°14.934 2°54.085 314.7 13 306 9.1
2005-03-08 07:34:17 51°14.949 2°54.054 314.2 13.1 307 9.3
2005-03-08 07:34:21 51°14.957 2°54.035 314.6 13.1 307 9.3
2005-03-08 07:34:27 51°14.97 2°54.007 314.9 13.1 307 9.2
2005-03-08 07:34:31 51°14.98 2°53.986 314.7 13.1 306 9.4
2005-03-08 07:34:37 51°14.992 2°53.961 314.7 13.1 307 9.5
2005-03-08 07:34:41 51°15.002 2°53.94 315 13.2 306 9.6
2005-03-08 07:34:47 51°15.014 2°53.914 315 13.2 307 9.8
2005-03-08 07:34:51 51°15.023 2°53.896 315 13.2 307 9.8
2005-03-08 07:34:57 51°15.036 2°53.868 315.3 13.2 307 9.7
2005-03-08 07:35:01 51°15.045 2°53.849 315.5 13.3 308 9.9
2005-03-08 07:35:07 51°15.058 2°53.823 315.9 13.3 308 9.8
2005-03-08 07:35:11 51°15.067 2°53.804 316.2 13 308 9.5
2005-03-08 07:35:17 51°15.083 2°53.774 315.8 13.1 308 9.8
2005-03-08 07:35:22 51°15.093 2°53.754 316.4 13.2 309 9.8
2005-03-08 07:35:26 51°15.104 2°53.734 316.9 13.1 309 9.9
2005-03-08 07:35:31 51°15.115 2°53.711 317.1 13.1 309 9.6
2005-03-08 07:35:36 51°15.126 2°53.689 316.6 13.1 309 9.9
2005-03-08 07:35:41 51°15.137 2°53.667 316.2 13.1 309 9.7
2005-03-08 07:35:47 51°15.149 2°53.64 315.2 13 306 9.8
2005-03-08 07:35:52 51°15.159 2°53.617 314.7 13 306 9.9
2005-03-08 07:35:57 51°15.168 2°53.591 314 13 306 9.8
2005-03-08 07:36:01 51°15.176 2°53.569 310.5 13 306 9.9
2005-03-08 07:36:07 51°15.185 2°53.54 307.7 13.3 298 10
2005-03-08 07:36:11 51°15.191 2°53.519 305.8 13.4 295 10
2005-03-08 07:36:17 51°15.199 2°53.486 303.3 13.4 295 10.2
2005-03-08 07:36:21 51°15.205 2°53.461 301.5 13.3 292 10.1
2005-03-08 07:36:26 51°15.212 2°53.432 298.8 13.6 290 10.2
2005-03-08 07:36:32 51°15.218 2°53.401 297.5 13.4 289 10.1
2005-03-08 07:36:37 51°15.224 2°53.372 296.6 13.4 289 10.3
2005-03-08 07:36:41 51°15.229 2°53.347 296.4 13.4 289 10
2005-03-08 07:36:47 51°15.235 2°53.315 296.1 13.6 288 10.2
2005-03-08 07:36:52 51°15.24 2°53.286 295.4 13.6 288 10.3
2005-03-08 07:36:57 51°15.245 2°53.257 295.4 13.7 286 10.2
2005-03-08 07:37:01 51°15.25 2°53.23 295.3 13.7 286 10.4
2005-03-08 07:37:06 51°15.255 2°53.202 295.2 13.7 286 10.6
2005-03-08 07:37:12 51°15.261 2°53.169 294.8 13.7 286 10.5
2005-03-08 07:37:17 51°15.266 2°53.142 295.4 13.7 286 10.8
2005-03-08 07:37:21 51°15.272 2°53.116 296.4 13.6 288 10.7
2005-03-08 07:37:27 51°15.278 2°53.084 296.4 13.6 288 10.8
2005-03-08 07:37:32 51°15.284 2°53.056 296.6 13.6 288 10.8
2005-03-08 07:37:37 51°15.289 2°53.027 296.8 13.5 286 10.9
2005-03-08 07:37:42 51°15.294 2°52.995 296.4 13.6 284 11
2005-03-08 07:37:47 51°15.297 2°52.968 292.9 13.6 283 10.8
2005-03-08 07:37:52 51°15.301 2°52.936 290.5 13.6 280 10.8
2005-03-08 07:37:57 51°15.303 2°52.909 288.4 13.6 279 10.9
2005-03-08 07:38:01 51°15.305 2°52.882 286.7 13.6 279 11
2005-03-08 07:38:07 51°15.308 2°52.849 285.7 13.6 279 11
2005-03-08 07:38:12 51°15.31 2°52.816 285.1 13.6 277 11
2005-03-08 07:38:17 51°15.312 2°52.789 284.5 13.6 276 11.2
2005-03-08 07:38:21 51°15.314 2°52.762 284.8 13.7 277 11
2005-03-08 07:38:27 51°15.317 2°52.729 284.4 13.7 277 11.2
2005-03-08 07:38:31 51°15.319 2°52.702 284.4 13.6 277 11.2
2005-03-08 07:38:37 51°15.321 2°52.67 284.5 13.7 276 11.2
2005-03-08 07:38:41 51°15.323 2°52.643 284.7 13.7 276 11.3
2005-03-08 07:38:47 51°15.326 2°52.61 285.2 13.6 278 11.3
2005-03-08 07:38:52 51°15.328 2°52.581 285.4 13.6 278 11.3
2005-03-08 07:38:57 51°15.331 2°52.547 285.2 13.6 277 11.3
2005-03-08 07:39:01 51°15.333 2°52.523 285.2 13.6 278 11.4
2005-03-08 07:39:07 51°15.335 2°52.491 284.6 13.7 276 11.4
2005-03-08 07:39:11 51°15.337 2°52.463 284.8 13.6 276 11.4
2005-03-08 07:39:17 51°15.339 2°52.431 284.5 13.6 275 11.5
2005-03-08 07:39:21 51°15.341 2°52.404 284 13.6 275 11.5
2005-03-08 07:39:27 51°15.343 2°52.37 284.3 13.6 276 11.5
2005-03-08 07:39:31 51°15.345 2°52.344 283.8 13.6 276 11.7
2005-03-08 07:39:37 51°15.348 2°52.308 283.7 13.6 275 11.6
2005-03-08 07:39:42 51°15.35 2°52.278 283.9 13.5 277 11.6
2005-03-08 07:39:47 51°15.351 2°52.252 283.7 13.5 277 11.8
2005-03-08 07:39:51 51°15.353 2°52.228 284.1 13.6 276 11.8
2005-03-08 07:39:57 51°15.356 2°52.192 283.7 13.6 276 12
2005-03-08 07:40:01 51°15.358 2°52.165 283.9 13.6 276 12
2005-03-08 07:40:07 51°15.36 2°52.133 284.1 13.5 277 12.1
2005-03-08 07:40:11 51°15.362 2°52.109 284.2 13.5 276 12
2005-03-08 07:40:17 51°15.364 2°52.07 284.2 13.6 277 11.9
2005-03-08 07:40:22 51°15.366 2°52.044 283.7 13.6 276 11.9
2005-03-08 07:40:27 51°15.368 2°52.014 284.2 13.5 276 12
2005-03-08 07:40:32 51°15.371 2°51.984 283.7 13.5 276 12
2005-03-08 07:40:37 51°15.373 2°51.952 284.1 13.5 277 12.2
2005-03-08 07:40:42 51°15.375 2°51.925 284.7 13.4 276 12.1
2005-03-08 07:40:47 51°15.378 2°51.896 284.1 13.4 276 12.2
2005-03-08 07:40:51 51°15.379 2°51.869 284.6 13.5 276 12.4
2005-03-08 07:40:57 51°15.381 2°51.837 284.1 13.4 276 12.3
2005-03-08 07:41:01 51°15.382 2°51.813 283.7 13.3 276 12.3
2005-03-08 07:41:07 51°15.382 2°51.778 281 13.4 274 12.4
2005-03-08 07:41:12 51°15.381 2°51.749 279.3 13.4 274 12.3
2005-03-08 07:41:17 51°15.381 2°51.716 276.9 13.4 274 12.1
2005-03-08 07:41:21 51°15.38 2°51.692 275 13.5 267 12.2
2005-03-08 07:41:27 51°15.378 2°51.66 273.1 13.4 265 12.3
2005-03-08 07:41:32 51°15.375 2°51.626 272.1 13.5 264 12.3
2005-03-08 07:41:37 51°15.374 2°51.597 270.5 13.6 262 12.4
2005-03-08 07:41:42 51°15.371 2°51.57 270 13.6 262 12.4
2005-03-08 07:41:47 51°15.369 2°51.54 269.2 13.6 261 12.3
2005-03-08 07:41:51 51°15.367 2°51.516 269.6 13.6 264 12.6
2005-03-08 07:41:57 51°15.363 2°51.477 269 13.6 261 12.6
2005-03-08 07:42:01 51°15.362 2°51.453 268.8 13.6 263 12.6
2005-03-08 07:42:07 51°15.358 2°51.42 268.5 13.6 263 12.5
2005-03-08 07:42:11 51°15.357 2°51.396 268.5 13.6 263 12.6
2005-03-08 07:42:17 51°15.354 2°51.358 268.9 13.7 260 12.7
2005-03-08 07:42:22 51°15.351 2°51.331 269.4 13.7 260 12.5
2005-03-08 07:42:27 51°15.35 2°51.302 268.6 13.6 263 12.7
2005-03-08 07:42:32 51°15.347 2°51.269 269.5 13.5 262 12.5
2005-03-08 07:42:37 51°15.344 2°51.242 269 13.6 262 12.6
2005-03-08 07:42:42 51°15.342 2°51.21 269 13.5 262 12.6
2005-03-08 07:42:47 51°15.339 2°51.183 269.2 13.5 262 12.6
2005-03-08 07:42:52 51°15.337 2°51.152 268.3 13.6 262 12.7
2005-03-08 07:42:57 51°15.334 2°51.124 269.1 13.7 262 12.8
2005-03-08 07:43:01 51°15.332 2°51.096 268.5 13.7 261 12.7
2005-03-08 07:43:07 51°15.328 2°51.063 268.5 13.5 262 12.7
2005-03-08 07:43:12 51°15.326 2°51.031 268 13.6 261 12.8
2005-03-08 07:43:17 51°15.322 2°51.004 267.2 13.6 261 12.8
2005-03-08 07:43:21 51°15.318 2°50.978 265.7 13.7 257 12.8
2005-03-08 07:43:27 51°15.314 2°50.945 264.2 13.6 259 12.7
2005-03-08 07:43:31 51°15.31 2°50.922 263.2 13.6 255 12.7
2005-03-08 07:43:37 51°15.306 2°50.887 264.7 13.6 255 12.8
2005-03-08 07:43:41 51°15.301 2°50.861 263.4 13.5 254 12.7
2005-03-08 07:43:47 51°15.297 2°50.828 262 13.5 254 12.8
2005-03-08 07:43:51 51°15.293 2°50.802 262.5 13.6 255 12.9
2005-03-08 07:43:57 51°15.288 2°50.768 263.4 13.5 259 12.8
2005-03-08 07:44:02 51°15.284 2°50.741 262.4 13.7 254 12.8
2005-03-08 07:44:06 51°15.281 2°50.714 263.1 13.5 258 12.8
2005-03-08 07:44:11 51°15.276 2°50.688 263.1 13.7 256 12.8
2005-03-08 07:44:17 51°15.272 2°50.653 263.9 13.7 256 12.7
2005-03-08 07:44:22 51°15.266 2°50.621 263.6 13.5 259 12.7
2005-03-08 07:44:27 51°15.263 2°50.595 263 13.5 259 12.5
2005-03-08 07:44:30 51°15.26 2°50.574 263 13.6 258 12.7
2005-03-08 07:44:37 51°15.254 2°50.536 263.1 13.6 258 12.7
2005-03-08 07:44:42 51°15.25 2°50.504 262.2 13.6 257 12.8
2005-03-08 07:44:47 51°15.245 2°50.478 263.6 13.7 256 12.9
2005-03-08 07:44:51 51°15.243 2°50.453 263.2 13.6 260 13
2005-03-08 07:44:57 51°15.237 2°50.416 263.5 13.6 260 12.9
2005-03-08 07:45:01 51°15.234 2°50.395 263.4 13.6 260 12.9
2005-03-08 07:45:07 51°15.229 2°50.36 263.3 13.6 260 13
2005-03-08 07:45:11 51°15.225 2°50.333 263.6 13.6 257 12.9
2005-03-08 07:45:17 51°15.221 2°50.302 263.2 13.6 256 12.8
2005-03-08 07:45:22 51°15.216 2°50.272 263.4 13.5 258 12.7
2005-03-08 07:45:27 51°15.212 2°50.243 262.4 13.5 258 13
2005-03-08 07:45:32 51°15.207 2°50.214 263.5 13.5 258 12.8
2005-03-08 07:45:37 51°15.203 2°50.185 262.9 13.6 256 13
2005-03-08 07:45:41 51°15.199 2°50.159 263.9 13.5 258 13
2005-03-08 07:45:47 51°15.195 2°50.127 262.7 13.7 257 13.2
2005-03-08 07:45:52 51°15.19 2°50.098 264.1 13.5 260 12.9
2005-03-08 07:45:57 51°15.187 2°50.068 262.8 13.6 259 12.9
2005-03-08 07:46:01 51°15.183 2°50.046 264.2 13.4 256 12.9
2005-03-08 07:46:07 51°15.178 2°50.011 263.4 13.4 256 12.9
2005-03-08 07:46:11 51°15.176 2°49.987 263.2 13.5 257 13
2005-03-08 07:46:17 51°15.17 2°49.949 262.7 13.5 257 13.1
2005-03-08 07:46:22 51°15.166 2°49.922 263.7 13.5 260 12.9
2005-03-08 07:46:26 51°15.163 2°49.896 263.4 13.5 258 13
2005-03-08 07:46:32 51°15.158 2°49.863 263.4 13.5 258 13.1
2005-03-08 07:46:37 51°15.155 2°49.834 264.1 13.5 258 13
2005-03-08 07:46:41 51°15.15 2°49.808 264.3 13.5 258 12.9
2005-03-08 07:46:46 51°15.148 2°49.779 264.5 13.6 262 12.9
2005-03-08 07:46:52 51°15.142 2°49.747 264.1 13.6 262 12.7
2005-03-08 07:46:57 51°15.138 2°49.717 263 13.6 262 12.9
2005-03-08 07:47:01 51°15.134 2°49.691 264.4 13.5 257 12.9
2005-03-08 07:47:07 51°15.131 2°49.658 263.6 13.6 260 13
2005-03-08 07:47:12 51°15.126 2°49.629 264.3 13.6 257 13.2
2005-03-08 07:47:16 51°15.123 2°49.602 264.2 13.6 258 13.2
2005-03-08 07:47:21 51°15.12 2°49.572 264.4 13.5 258 13.3
2005-03-08 07:47:26 51°15.115 2°49.543 264.1 13.6 259 13.2
2005-03-08 07:47:31 51°15.112 2°49.516 264.4 13.6 258 13.4
2005-03-08 07:47:37 51°15.107 2°49.481 264.6 13.5 257 13.2
2005-03-08 07:47:41 51°15.103 2°49.454 262.9 14 255 13.1
2005-03-08 07:47:47 51°15.099 2°49.423 265.4 13.6 261 13
2005-03-08 07:47:52 51°15.095 2°49.39 263.8 13.3 259 13.1
2005-03-08 07:47:57 51°15.092 2°49.364 264.1 13.8 263 12.9
2005-03-08 07:48:01 51°15.088 2°49.337 265.4 13.6 257 13
2005-03-08 07:48:07 51°15.083 2°49.301 263.7 13.6 256 13.1
2005-03-08 07:48:12 51°15.079 2°49.272 264.6 13.5 258 13.1
2005-03-08 07:48:17 51°15.075 2°49.243 263.4 13.5 258 13.4
2005-03-08 07:48:22 51°15.071 2°49.216 263.5 13.8 257 13.1
2005-03-08 07:48:27 51°15.067 2°49.187 264.5 13.8 257 13.2
2005-03-08 07:48:32 51°15.063 2°49.155 264.1 13.6 256 13.3
2005-03-08 07:48:37 51°15.059 2°49.128 263.4 13.7 258 13.3
2005-03-08 07:48:41 51°15.056 2°49.105 264.2 13.7 258 13.2
2005-03-08 07:48:47 51°15.051 2°49.069 263.4 13.6 257 13.1
2005-03-08 07:48:51 51°15.048 2°49.042 264 13.7 258 13.2
2005-03-08 07:48:57 51°15.043 2°49.008 264.7 13.6 260 13.4
2005-03-08 07:49:02 51°15.04 2°48.981 264.1 13.6 260 13.2
2005-03-08 07:49:07 51°15.036 2°48.95 263.7 13.8 260 13.2
2005-03-08 07:49:11 51°15.034 2°48.927 265.2 13.6 260 13.2
2005-03-08 07:49:17 51°15.028 2°48.892 264.4 13.5 256 13.2
2005-03-08 07:49:22 51°15.024 2°48.86 263.6 13.6 257 13.1
2005-03-08 07:49:27 51°15.02 2°48.832 263.1 13.6 257 13.1
2005-03-08 07:49:32 51°15.016 2°48.804 263.6 13.7 257 13.1
2005-03-08 07:49:37 51°15.013 2°48.774 264 13.7 257 13.1
2005-03-08 07:49:41 51°15.008 2°48.748 264.2 13.7 257 13
2005-03-08 07:49:47 51°15.005 2°48.716 264.2 13.7 257 13
2005-03-08 07:49:52 51°15.001 2°48.686 264.2 13.6 254 13.1
2005-03-08 07:49:57 51°14.996 2°48.658 264.6 13.7 259 13
2005-03-08 07:50:01 51°14.993 2°48.631 263.4 13.5 256 13
2005-03-08 07:50:07 51°14.987 2°48.598 262 13.5 256 13.1
2005-03-08 07:50:11 51°14.985 2°48.574 263.7 13.8 256 13.1
2005-03-08 07:50:17 51°14.979 2°48.537 264.1 13.6 254 13.2
2005-03-08 07:50:21 51°14.976 2°48.513 263.2 13.8 258 13.2
2005-03-08 07:50:27 51°14.971 2°48.481 264.6 13.6 259 13.1
2005-03-08 07:50:31 51°14.968 2°48.457 263.2 13.7 257 13.2
2005-03-08 07:50:36 51°14.964 2°48.425 264.7 13.6 260 13.2
2005-03-08 07:50:42 51°14.96 2°48.392 264.4 13.6 260 13.2
2005-03-08 07:50:47 51°14.956 2°48.364 264.8 13.6 260 13.1
2005-03-08 07:50:51 51°14.953 2°48.34 264 13.7 257 13.2
2005-03-08 07:50:57 51°14.948 2°48.305 264.8 13.6 259 13.3
2005-03-08 07:51:01 51°14.945 2°48.278 263.9 13.7 259 13.4
2005-03-08 07:51:07 51°14.94 2°48.247 264.9 13.7 259 13.5
2005-03-08 07:51:12 51°14.937 2°48.215 264.1 13.5 255 13.2
2005-03-08 07:51:17 51°14.933 2°48.187 263.3 13.6 258 13.3
2005-03-08 07:51:21 51°14.929 2°48.161 265.2 13.6 260 13.1
2005-03-08 07:51:27 51°14.925 2°48.129 264.1 13.4 258 13.1
2005-03-08 07:51:31 51°14.922 2°48.102 264.5 13.5 257 13.2
2005-03-08 07:51:37 51°14.917 2°48.072 265.1 13.4 257 13.1
2005-03-08 07:51:42 51°14.913 2°48.042 263 13.4 257 13.1
2005-03-08 07:51:46 51°14.91 2°48.016 263.4 13.5 257 13.4
2005-03-08 07:51:52 51°14.906 2°47.983 263.6 13.5 257 13.6
2005-03-08 07:51:57 51°14.901 2°47.955 264.2 13.5 257 13.5
2005-03-08 07:52:02 51°14.899 2°47.925 264.3 13.4 259 13.7
2005-03-08 07:52:07 51°14.894 2°47.896 265.4 13.4 259 13.4
2005-03-08 07:52:12 51°14.89 2°47.867 264.5 13.5 257 13.1
2005-03-08 07:52:17 51°14.887 2°47.835 264.7 13.5 257 12.9
2005-03-08 07:52:21 51°14.883 2°47.812 265.4 13.5 257 13.1
2005-03-08 07:52:27 51°14.879 2°47.779 265 13.4 257 13.2
2005-03-08 07:52:31 51°14.876 2°47.753 264.8 13.6 259 13.5
2005-03-08 07:52:37 51°14.872 2°47.721 265.3 13.4 260 13.7
2005-03-08 07:52:41 51°14.869 2°47.695 264.4 13.5 258 13.8
2005-03-08 07:52:47 51°14.865 2°47.663 264.3 13.5 258 13.7
2005-03-08 07:52:52 51°14.861 2°47.633 263.8 13.4 258 13.8
2005-03-08 07:52:57 51°14.856 2°47.602 263.6 13.4 258 13.7
2005-03-08 07:53:01 51°14.853 2°47.579 264.9 13.3 258 13.5
2005-03-08 07:53:07 51°14.849 2°47.546 263.4 13.3 258 13.5
2005-03-08 07:53:11 51°14.844 2°47.524 264.1 13.4 256 13.4
2005-03-08 07:53:17 51°14.84 2°47.488 263.1 13.4 256 13.3
2005-03-08 07:53:21 51°14.838 2°47.464 264.2 13.4 261 13.4
2005-03-08 07:53:27 51°14.832 2°47.43 264.5 13.4 255 13.3
2005-03-08 07:53:32 51°14.828 2°47.4 264.5 13.5 258 13.2
2005-03-08 07:53:37 51°14.824 2°47.372 263.8 13.5 257 13.4
2005-03-08 07:53:41 51°14.821 2°47.345 263.3 13.5 257 13.4
2005-03-08 07:53:47 51°14.816 2°47.309 264.9 13.5 257 13.6
2005-03-08 07:53:51 51°14.814 2°47.289 264.6 13.7 257 13.4
2005-03-08 07:53:57 51°14.81 2°47.254 264.6 13.7 257 13.5
2005-03-08 07:54:01 51°14.806 2°47.228 265.2 13.7 257 13.5
2005-03-08 07:54:07 51°14.803 2°47.195 264.7 13.6 260 13.6
2005-03-08 07:54:12 51°14.798 2°47.167 265.5 13.4 259 13.6
2005-03-08 07:54:17 51°14.794 2°47.135 263.8 13.6 256 13.3
2005-03-08 07:54:22 51°14.79 2°47.109 264 13.3 256 13.6
2005-03-08 07:54:27 51°14.785 2°47.079 263.4 13.4 252 13.1
2005-03-08 07:54:32 51°14.781 2°47.048 261.3 13.5 254 13
2005-03-08 07:54:37 51°14.775 2°47.022 264.6 13.2 257 12.6
2005-03-08 07:54:41 51°14.773 2°46.996 262.4 13.3 256 12.7
2005-03-08 07:54:47 51°14.769 2°46.963 264.4 13.5 258 12.8
2005-03-08 07:54:52 51°14.765 2°46.936 265 13.5 258 13.1
2005-03-08 07:54:57 51°14.76 2°46.905 263.9 13.3 258 12.7
2005-03-08 07:55:01 51°14.758 2°46.879 263.9 13.7 256 13
2005-03-08 07:55:07 51°14.752 2°46.847 265.5 13.4 260 13
2005-03-08 07:55:12 51°14.748 2°46.815 264.1 13.4 260 12.8
2005-03-08 07:55:17 51°14.746 2°46.79 265.3 13.5 262 12.9
2005-03-08 07:55:21 51°14.741 2°46.763 265.6 13.5 262 12.8
2005-03-08 07:55:27 51°14.738 2°46.731 264.2 13.5 262 12.6
2005-03-08 07:55:32 51°14.733 2°46.702 265.5 13.5 262 12.4
2005-03-08 07:55:37 51°14.73 2°46.672 263.4 13.6 257 12.5
2005-03-08 07:55:42 51°14.726 2°46.644 265.2 13.6 257 12
2005-03-08 07:55:47 51°14.722 2°46.613 265.3 13.3 258 12
2005-03-08 07:55:52 51°14.719 2°46.584 263.8 13.6 258 12
2005-03-08 07:55:57 51°14.715 2°46.553 265.9 13.8 261 11.8
2005-03-08 07:56:01 51°14.711 2°46.53 264.9 13.8 261 11.7
2005-03-08 07:56:07 51°14.707 2°46.497 263.5 13.5 255 11.5
2005-03-08 07:56:12 51°14.702 2°46.466 264.6 13.5 255 11.2
2005-03-08 07:56:17 51°14.699 2°46.44 263.7 13.6 258 11.2
2005-03-08 07:56:22 51°14.695 2°46.407 264.6 13.5 259 10.7
2005-03-08 07:56:27 51°14.691 2°46.381 264.1 13.5 259 10.7
2005-03-08 07:56:30 51°14.689 2°46.361 263.5 13.4 261 10.6
2005-03-08 07:56:37 51°14.683 2°46.32 266.1 13.3 259 10.6
2005-03-08 07:56:41 51°14.681 2°46.297 263.5 13.6 255 10.5
2005-03-08 07:56:47 51°14.676 2°46.265 265.6 13.5 258 10.3
2005-03-08 07:56:51 51°14.673 2°46.242 263.3 13.3 254 10
2005-03-08 07:56:57 51°14.668 2°46.205 265.5 13.4 256 9.9
2005-03-08 07:57:01 51°14.665 2°46.182 264.8 13.3 255 9.9
2005-03-08 07:57:07 51°14.661 2°46.149 263.8 13.3 260 9.9
2005-03-08 07:57:12 51°14.657 2°46.122 264.1 13.3 260 10
2005-03-08 07:57:17 51°14.652 2°46.092 263.4 13.3 260 9.8
2005-03-08 07:57:21 51°14.649 2°46.069 263.8 13.3 260 9.8
2005-03-08 07:57:27 51°14.646 2°46.036 263.9 13.3 260 9.6
2005-03-08 07:57:32 51°14.64 2°46.004 265.3 13.1 256 9.3
2005-03-08 07:57:37 51°14.637 2°45.977 263.1 13.1 256 9.2
2005-03-08 07:57:41 51°14.634 2°45.953 265.1 13.2 259 9.2
2005-03-08 07:57:47 51°14.629 2°45.921 264.2 13.2 259 9.1
2005-03-08 07:57:52 51°14.625 2°45.892 264.1 13.3 259 9.2
2005-03-08 07:57:57 51°14.621 2°45.861 264.9 13.3 258 9.1
2005-03-08 07:58:01 51°14.618 2°45.838 264.7 13.1 255 9.2
2005-03-08 07:58:07 51°14.614 2°45.806 264.8 13.1 257 9.1
2005-03-08 07:58:11 51°14.61 2°45.78 264.1 13.2 257 9.1
2005-03-08 07:58:17 51°14.606 2°45.749 265.1 13.2 261 9
2005-03-08 07:58:21 51°14.603 2°45.723 263.8 13.5 255 9
2005-03-08 07:58:27 51°14.599 2°45.692 266.2 13.4 260 9.1
2005-03-08 07:58:31 51°14.595 2°45.665 264.4 13.4 256 9.2
2005-03-08 07:58:37 51°14.591 2°45.632 264.9 13.2 259 9.1
2005-03-08 07:58:41 51°14.588 2°45.608 266.3 13.2 258 9
2005-03-08 07:58:47 51°14.584 2°45.575 263 13.5 254 9
2005-03-08 07:58:51 51°14.58 2°45.549 265.8 13.3 259 9.2
2005-03-08 07:58:57 51°14.575 2°45.515 264.5 13.3 259 9.2
2005-03-08 07:59:01 51°14.572 2°45.492 264.1 13.5 258 9.4
2005-03-08 07:59:07 51°14.568 2°45.459 264.7 13.5 258 9.5
2005-03-08 07:59:11 51°14.563 2°45.433 264.1 13.5 258 9.4
2005-03-08 07:59:17 51°14.559 2°45.401 264.8 13.6 258 9.6
2005-03-08 07:59:21 51°14.556 2°45.375 264.8 13.7 256 9.7
2005-03-08 07:59:27 51°14.552 2°45.342 265.3 13.7 256 10
2005-03-08 07:59:31 51°14.549 2°45.318 265.1 13.6 259 10.2
2005-03-08 07:59:37 51°14.545 2°45.283 266.7 13.7 259 10.3
2005-03-08 07:59:41 51°14.542 2°45.259 266.4 13.7 259 10.1
2005-03-08 07:59:47 51°14.538 2°45.223 266.9 13.7 259 10.2
2005-03-08 07:59:51 51°14.536 2°45.195 266.7 13.7 259 10.4
2005-03-08 07:59:57 51°14.532 2°45.163 267.4 13.9 261 10.7
2005-03-08 08:00:02 51°14.528 2°45.13 267.4 13.7 260 11
2005-03-08 08:00:07 51°14.526 2°45.103 267 13.7 260 11.3
2005-03-08 08:00:11 51°14.523 2°45.075 267.7 13.9 260 11.4
2005-03-08 08:00:17 51°14.518 2°45.04 268.6 13.8 263 11.5
2005-03-08 08:00:21 51°14.517 2°45.019 265.5 13.8 260 11.5
2005-03-08 08:00:27 51°14.513 2°44.982 269.1 13.9 266 11.6
2005-03-08 08:00:31 51°14.512 2°44.96 269.5 13.7 263 11.4
2005-03-08 08:00:37 51°14.509 2°44.922 269.2 13.7 263 11.5
2005-03-08 08:00:41 51°14.507 2°44.896 269.8 13.8 262 11.8
2005-03-08 08:00:47 51°14.504 2°44.864 269.8 13.7 264 12
2005-03-08 08:00:51 51°14.502 2°44.835 269.5 13.7 264 12.1
2005-03-08 08:00:57 51°14.499 2°44.802 269.7 13.8 263 12.3
2005-03-08 08:01:01 51°14.498 2°44.777 270.7 13.5 263 12.7
2005-03-08 08:01:07 51°14.495 2°44.743 270.1 13.5 263 12.7
2005-03-08 08:01:11 51°14.494 2°44.716 269.8 13.5 263 12.9
2005-03-08 08:01:17 51°14.492 2°44.684 270.9 13.3 263 13.4
2005-03-08 08:01:21 51°14.489 2°44.657 271.2 13.5 263 13.3
2005-03-08 08:01:26 51°14.489 2°44.627 271.2 13.8 260 13.5
2005-03-08 08:01:31 51°14.486 2°44.6 271.8 13.5 269 13.5
2005-03-08 08:01:37 51°14.485 2°44.565 269.9 13.6 265 13.8
2005-03-08 08:01:42 51°14.482 2°44.535 270.9 13.5 268 13.9
2005-03-08 08:01:47 51°14.481 2°44.504 270.5 13.5 268 13.9
2005-03-08 08:01:51 51°14.478 2°44.477 271.7 13.6 268 14.1
2005-03-08 08:01:57 51°14.477 2°44.442 270.7 13.6 262 14.2
2005-03-08 08:02:01 51°14.475 2°44.418 271.5 13.6 267 14.3
2005-03-08 08:02:07 51°14.472 2°44.385 270.6 13.4 264 14.5
2005-03-08 08:02:11 51°14.471 2°44.361 269.8 13.8 265 14.6
2005-03-08 08:02:17 51°14.468 2°44.322 271.5 13.6 265 14.7
2005-03-08 08:02:21 51°14.467 2°44.298 270.5 13.7 262 14.8
2005-03-08 08:02:27 51°14.464 2°44.265 270.7 13.7 263 14.8
2005-03-08 08:02:32 51°14.462 2°44.235 270.1 13.7 263 14.9
2005-03-08 08:02:37 51°14.461 2°44.205 269.8 13.7 263 15.1
2005-03-08 08:02:41 51°14.458 2°44.178 270.7 13.8 262 15.1
2005-03-08 08:02:47 51°14.457 2°44.145 270 13.8 262 15.3
2005-03-08 08:02:52 51°14.452 2°44.114 271.4 13.8 262 15
2005-03-08 08:02:57 51°14.453 2°44.084 269.1 13.8 264 15.5
2005-03-08 08:03:01 51°14.449 2°44.058 271.4 13.6 260 15.6
2005-03-08 08:03:07 51°14.447 2°44.024 270.7 13.6 261 15.5
2005-03-08 08:03:11 51°14.446 2°44 270.4 13.7 264 15.8
2005-03-08 08:03:17 51°14.443 2°43.964 271.2 13.7 264 15.8
2005-03-08 08:03:21 51°14.442 2°43.937 270.4 13.8 262 15.7
2005-03-08 08:03:27 51°14.439 2°43.904 270.9 13.8 262 16
2005-03-08 08:03:31 51°14.437 2°43.88 270.7 13.8 262 16
2005-03-08 08:03:37 51°14.435 2°43.843 269.8 13.8 263 16.4
2005-03-08 08:03:41 51°14.433 2°43.816 271 13.7 263 16.4
2005-03-08 08:03:47 51°14.431 2°43.784 271.2 13.7 263 16.5
2005-03-08 08:03:50 51°14.428 2°43.762 270.3 13.8 261 16.6
2005-03-08 08:03:57 51°14.426 2°43.723 270.7 13.8 264 16.4
2005-03-08 08:04:02 51°14.424 2°43.693 270.9 13.8 264 16.6
2005-03-08 08:04:07 51°14.421 2°43.662 269.3 13.8 264 16.6
2005-03-08 08:04:11 51°14.42 2°43.635 270 13.8 265 16.9
2005-03-08 08:04:17 51°14.418 2°43.603 271.4 13.6 264 16.9
2005-03-08 08:04:22 51°14.415 2°43.572 270.5 13.6 264 16.9
2005-03-08 08:04:27 51°14.414 2°43.543 270.4 13.6 264 16.9
2005-03-08 08:04:31 51°14.411 2°43.516 270.7 13.6 264 16.7
2005-03-08 08:04:37 51°14.409 2°43.481 270.2 13.6 263 17
2005-03-08 08:04:41 51°14.407 2°43.457 269.7 13.5 263 17
2005-03-08 08:04:47 51°14.404 2°43.424 269.5 13.5 263 17.3
2005-03-08 08:04:51 51°14.402 2°43.397 270.7 13.4 263 17.5
2005-03-08 08:04:57 51°14.398 2°43.363 269.1 13.5 262 17
2005-03-08 08:05:01 51°14.395 2°43.34 267.6 13.2 261 17
2005-03-08 08:05:06 51°14.394 2°43.31 269.3 13.2 261 17
2005-03-08 08:05:11 51°14.391 2°43.28 270.3 13.3 263 17.1
2005-03-08 08:05:17 51°14.389 2°43.246 270.5 13.3 263 17.4
2005-03-08 08:05:21 51°14.388 2°43.222 271 13.4 264 17.4
2005-03-08 08:05:27 51°14.385 2°43.188 271 13.4 264 17.3
2005-03-08 08:05:32 51°14.384 2°43.159 270.5 13.4 263 17.5
2005-03-08 08:05:37 51°14.382 2°43.13 270.9 13.4 263 17.5
2005-03-08 08:05:42 51°14.38 2°43.098 272.1 13.3 267 17.7
2005-03-08 08:05:47 51°14.379 2°43.071 271 13.3 267 17.6
2005-03-08 08:05:52 51°14.376 2°43.041 271.3 13.5 266 17.8
2005-03-08 08:05:57 51°14.375 2°43.012 271.5 13.5 264 17.6
2005-03-08 08:06:01 51°14.373 2°42.985 270.1 13.5 264 17.7
2005-03-08 08:06:07 51°14.37 2°42.951 269.1 13.7 261 17.5
2005-03-08 08:06:12 51°14.368 2°42.92 269.9 13.7 261 17.7
2005-03-08 08:06:17 51°14.366 2°42.894 269.3 13.7 261 17.8
2005-03-08 08:06:21 51°14.364 2°42.867 270.8 13.5 267 17.5
2005-03-08 08:06:27 51°14.361 2°42.834 269.6 13.5 260 17.7
2005-03-08 08:06:31 51°14.359 2°42.807 268.3 13.6 261 17.9
2005-03-08 08:06:37 51°14.355 2°42.774 269.7 13.6 264 17.9
2005-03-08 08:06:41 51°14.354 2°42.75 269 13.6 263 18
2005-03-08 08:06:47 51°14.352 2°42.712 270.3 13.6 263 18
2005-03-08 08:06:51 51°14.351 2°42.688 271.1 13.4 265 17.9
2005-03-08 08:06:57 51°14.349 2°42.656 273 13.5 265 18
2005-03-08 08:07:01 51°14.348 2°42.63 272.6 13.5 265 17.9
2005-03-08 08:07:07 51°14.347 2°42.596 272.6 13.3 267 18.1
2005-03-08 08:07:11 51°14.345 2°42.573 273.4 13.6 266 18.1
2005-03-08 08:07:17 51°14.344 2°42.535 273.7 13.6 266 17.8
2005-03-08 08:07:22 51°14.342 2°42.509 272.6 13.6 266 17.9
2005-03-08 08:07:27 51°14.341 2°42.478 272.2 13.4 266 17.9
2005-03-08 08:07:31 51°14.34 2°42.455 273.4 13.4 266 17.9
2005-03-08 08:07:37 51°14.339 2°42.42 273.5 13.4 267 17.9
2005-03-08 08:07:41 51°14.338 2°42.393 274.3 13.4 266 17.9
2005-03-08 08:07:47 51°14.337 2°42.36 273.1 13.5 268 17.9
2005-03-08 08:07:51 51°14.337 2°42.336 273.9 13.5 268 18.1
2005-03-08 08:07:57 51°14.335 2°42.301 273.3 13.5 268 18.1
2005-03-08 08:08:01 51°14.334 2°42.274 273.7 13.3 267 17.9
2005-03-08 08:08:07 51°14.333 2°42.242 273.7 13.4 268 18.2
2005-03-08 08:08:11 51°14.331 2°42.215 274.7 13.4 268 18
2005-03-08 08:08:17 51°14.33 2°42.183 273 13.3 265 17.9
2005-03-08 08:08:21 51°14.329 2°42.156 273.3 13.3 265 17.9
2005-03-08 08:08:27 51°14.328 2°42.12 274.6 13.4 268 18.2
2005-03-08 08:08:31 51°14.327 2°42.096 273.5 13.3 265 18.2
2005-03-08 08:08:37 51°14.326 2°42.065 273.9 13.3 265 18.5
2005-03-08 08:08:41 51°14.325 2°42.038 274.1 13.3 267 18.2
2005-03-08 08:08:47 51°14.324 2°42.006 273.4 13.3 267 18.3
2005-03-08 08:08:52 51°14.323 2°41.973 273.7 13.3 267 18.4
2005-03-08 08:08:57 51°14.321 2°41.946 274.3 13.4 267 18.3
2005-03-08 08:09:01 51°14.321 2°41.92 273.8 13.4 267 18.2
2005-03-08 08:09:06 51°14.319 2°41.891 273.3 13.3 266 17.9
2005-03-08 08:09:11 51°14.317 2°41.861 272.9 13.3 266 17.5
2005-03-08 08:09:17 51°14.317 2°41.826 272.7 13.3 266 17.5
2005-03-08 08:09:21 51°14.315 2°41.803 273.3 13.3 264 16.8
2005-03-08 08:09:27 51°14.314 2°41.77 273.5 13.3 264 16.7
2005-03-08 08:09:31 51°14.313 2°41.747 272.9 13.3 267 16.5
2005-03-08 08:09:37 51°14.312 2°41.711 273.6 13.1 268 16.7
2005-03-08 08:09:41 51°14.31 2°41.685 272.8 13.1 268 16.8
2005-03-08 08:09:47 51°14.309 2°41.653 272.9 13.1 268 16.7
2005-03-08 08:09:52 51°14.307 2°41.621 272 13.4 264 16.7
2005-03-08 08:09:57 51°14.306 2°41.595 272.9 13.2 267 16.5
2005-03-08 08:10:01 51°14.304 2°41.569 272.7 13.2 267 16.1
2005-03-08 08:10:07 51°14.302 2°41.536 272.3 13.2 267 15.8
2005-03-08 08:10:11 51°14.302 2°41.513 272.3 13.2 267 15.9
2005-03-08 08:10:17 51°14.301 2°41.479 274.1 13 269 15.7
2005-03-08 08:10:21 51°14.3 2°41.456 273.5 13.2 266 15.7
2005-03-08 08:10:27 51°14.298 2°41.42 273 13.2 266 15.6
2005-03-08 08:10:32 51°14.298 2°41.392 274.3 13.2 266 15.7
2005-03-08 08:10:37 51°14.296 2°41.362 273.6 13.2 266 15.4
2005-03-08 08:10:42 51°14.296 2°41.333 274.3 13.2 266 15.6
2005-03-08 08:10:47 51°14.293 2°41.303 273.9 13.2 266 15.2
2005-03-08 08:10:51 51°14.294 2°41.28 272.9 13.2 270 15.3
2005-03-08 08:10:57 51°14.292 2°41.245 274.3 13.1 269 15.2
2005-03-08 08:11:01 51°14.292 2°41.219 273.2 13.1 269 15.1
2005-03-08 08:11:07 51°14.29 2°41.187 274.8 13.2 270 15.3
2005-03-08 08:11:11 51°14.291 2°41.16 274.3 13.3 264 15.4
2005-03-08 08:11:17 51°14.289 2°41.126 274 13.2 264 15.7
2005-03-08 08:11:21 51°14.288 2°41.103 273.6 13.3 264 15.8
2005-03-08 08:11:27 51°14.287 2°41.07 274.3 13.1 266 15.9
2005-03-08 08:11:30 51°14.286 2°41.051 273.3 13.1 267 15.8
2005-03-08 08:11:37 51°14.284 2°41.013 273 13.1 267 15.4
2005-03-08 08:11:41 51°14.283 2°40.99 272.8 13.1 267 14.6
2005-03-08 08:11:47 51°14.283 2°40.955 274.1 13.1 267 14.7
2005-03-08 08:11:51 51°14.282 2°40.933 273.8 13.1 267 15
2005-03-08 08:11:57 51°14.28 2°40.897 272.7 13.1 267 15.2
2005-03-08 08:12:01 51°14.28 2°40.871 273.6 13.2 272 15.4
2005-03-08 08:12:07 51°14.278 2°40.84 274.9 12.8 269 15.5
2005-03-08 08:12:11 51°14.277 2°40.816 272.2 12.8 269 15.6
2005-03-08 08:12:17 51°14.277 2°40.781 273.6 13.3 269 15.6
2005-03-08 08:12:21 51°14.276 2°40.755 274.2 13.1 266 15.6
2005-03-08 08:12:27 51°14.275 2°40.724 273.6 13.1 267 15.4
2005-03-08 08:12:31 51°14.274 2°40.701 274 12.9 267 15
2005-03-08 08:12:37 51°14.273 2°40.665 272.7 13.3 263 14.8
2005-03-08 08:12:41 51°14.272 2°40.639 274.2 13.1 270 14.5
2005-03-08 08:12:46 51°14.27 2°40.611 272.6 13.2 263 14
2005-03-08 08:12:52 51°14.269 2°40.577 273.6 13 270 14.1
2005-03-08 08:12:57 51°14.268 2°40.551 273.5 12.7 266 14.1
2005-03-08 08:13:01 51°14.266 2°40.524 272.1 13.3 265 14.3
2005-03-08 08:13:07 51°14.266 2°40.492 274.1 13.1 270 14.8
2005-03-08 08:13:11 51°14.264 2°40.47 272.9 13.1 270 14.9
2005-03-08 08:13:17 51°14.263 2°40.434 272.6 13.1 267 15.3
2005-03-08 08:13:22 51°14.262 2°40.403 273.4 13.1 267 15.3
2005-03-08 08:13:27 51°14.26 2°40.377 272.9 13 267 15.3
2005-03-08 08:13:31 51°14.26 2°40.35 272.1 13.3 263 15.3
2005-03-08 08:13:37 51°14.258 2°40.32 273.6 13.3 263 15.2
2005-03-08 08:13:41 51°14.257 2°40.293 272.3 13.2 266 14.9
2005-03-08 08:13:47 51°14.255 2°40.262 272.8 13.2 266 14.6
2005-03-08 08:13:51 51°14.255 2°40.239 273.2 13.2 266 14.5
2005-03-08 08:13:57 51°14.253 2°40.204 272.7 13.2 266 14.4
2005-03-08 08:14:01 51°14.253 2°40.179 273.7 13.2 266 13.4
2005-03-08 08:14:07 51°14.251 2°40.147 273 12.8 266 12.2
2005-03-08 08:14:11 51°14.25 2°40.123 272.9 12.8 266 13.2
2005-03-08 08:14:17 51°14.249 2°40.09 274.3 12.9 269 14
2005-03-08 08:14:21 51°14.247 2°40.065 272.1 12.9 266 14.6
2005-03-08 08:14:27 51°14.247 2°40.032 272.9 13.2 268 14.8
2005-03-08 08:14:31 51°14.247 2°40.01 273.5 12.9 270 14.9
2005-03-08 08:14:37 51°14.244 2°39.975 272.9 12.9 270 14.8
2005-03-08 08:14:41 51°14.245 2°39.951 273.5 13.2 268 14.7
2005-03-08 08:14:47 51°14.242 2°39.918 273.5 13.2 271 14.5
2005-03-08 08:14:51 51°14.24 2°39.895 269.8 13 263 14.3
2005-03-08 08:14:57 51°14.237 2°39.86 269.3 13.3 263 14.2
2005-03-08 08:15:01 51°14.236 2°39.834 269.9 13.1 264 14.2
2005-03-08 08:15:07 51°14.232 2°39.8 268.8 12.9 263 14.2
2005-03-08 08:15:12 51°14.23 2°39.771 269.4 12.9 263 14.4
2005-03-08 08:15:17 51°14.227 2°39.745 268.5 13.3 261 14.5
2005-03-08 08:15:21 51°14.226 2°39.72 267.9 13.3 261 14.6
2005-03-08 08:15:27 51°14.222 2°39.687 268.1 13.3 261 14.5
2005-03-08 08:15:31 51°14.221 2°39.665 268.4 13.2 263 14.6
2005-03-08 08:15:37 51°14.217 2°39.632 268.5 13.1 264 14.6
2005-03-08 08:15:41 51°14.214 2°39.605 266.6 13.3 260 14.5
2005-03-08 08:15:47 51°14.212 2°39.573 267.7 13.4 262 14.7
2005-03-08 08:15:51 51°14.209 2°39.549 268.5 13.3 260 14.5
2005-03-08 08:15:57 51°14.206 2°39.513 268.4 13.1 261 14.2
2005-03-08 08:16:02 51°14.203 2°39.486 267.9 13.3 259 14.3
2005-03-08 08:16:07 51°14.201 2°39.458 266.5 13.3 262 14.4
2005-03-08 08:16:10 51°14.198 2°39.438 269.2 13.1 262 14.2
2005-03-08 08:16:17 51°14.194 2°39.398 267.6 13.1 261 14.4
2005-03-08 08:16:21 51°14.192 2°39.375 269.4 13.2 263 14
2005-03-08 08:16:27 51°14.188 2°39.343 267.5 13.1 260 14.2
2005-03-08 08:16:31 51°14.186 2°39.317 266.8 13.3 261 14.2
2005-03-08 08:16:37 51°14.182 2°39.286 268.3 13.3 261 14
2005-03-08 08:16:41 51°14.18 2°39.263 267.6 13.1 260 14.2
2005-03-08 08:16:47 51°14.177 2°39.229 267.3 13.2 260 14.2
2005-03-08 08:16:51 51°14.173 2°39.203 267.8 13.1 260 14.2
2005-03-08 08:16:57 51°14.17 2°39.169 266.5 13.1 260 14.2
2005-03-08 08:17:02 51°14.167 2°39.14 268.2 13 261 13.4
2005-03-08 08:17:07 51°14.164 2°39.115 267.4 13.1 259 12.8
2005-03-08 08:17:11 51°14.162 2°39.092 267.2 13.2 262 12.8
2005-03-08 08:17:17 51°14.157 2°39.057 267.5 13.2 262 12.8
2005-03-08 08:17:21 51°14.154 2°39.031 267.1 13.1 260 12.9
2005-03-08 08:17:27 51°14.15 2°38.999 267 13.1 260 13
2005-03-08 08:17:31 51°14.149 2°38.972 267.5 13.5 263 13.2
2005-03-08 08:17:37 51°14.145 2°38.94 269.7 13.5 263 13.5
2005-03-08 08:17:41 51°14.143 2°38.914 269.1 13.5 263 13.3
2005-03-08 08:17:47 51°14.139 2°38.881 268.8 13.4 262 11.7
2005-03-08 08:17:52 51°14.137 2°38.85 268.3 13.3 262 12.2
2005-03-08 08:17:57 51°14.133 2°38.824 269.2 13.2 263 12.9
2005-03-08 08:18:01 51°14.132 2°38.798 269.1 13.2 263 13.2
2005-03-08 08:18:07 51°14.129 2°38.765 269.1 13.3 261 13.5
2005-03-08 08:18:12 51°14.126 2°38.733 269.4 13.3 260 14.2
2005-03-08 08:18:17 51°14.122 2°38.707 268.9 13.4 263 13.9
2005-03-08 08:18:21 51°14.121 2°38.68 268.6 13.4 260 14.5
2005-03-08 08:18:27 51°14.117 2°38.648 269.2 13.4 260 14.8
2005-03-08 08:18:31 51°14.116 2°38.626 268.6 13.4 260 15
2005-03-08 08:18:37 51°14.111 2°38.589 268.6 13.4 260 15.6
2005-03-08 08:18:41 51°14.109 2°38.564 267.5 13.4 260 16
2005-03-08 08:18:47 51°14.106 2°38.531 268.4 13.4 260 16.7
2005-03-08 08:18:51 51°14.104 2°38.507 268.6 13.4 261 16.8
2005-03-08 08:18:57 51°14.1 2°38.472 268.5 13.4 261 17.2
2005-03-08 08:19:01 51°14.096 2°38.446 267.6 13.6 259 17.5
2005-03-08 08:19:07 51°14.093 2°38.414 267.5 13.6 260 17.3
2005-03-08 08:19:12 51°14.089 2°38.381 267.9 13.6 260 17.4
2005-03-08 08:19:17 51°14.087 2°38.355 267 13.6 260 17.9
2005-03-08 08:19:21 51°14.083 2°38.332 269.2 13.6 260 17.8
2005-03-08 08:19:27 51°14.081 2°38.295 267.4 13.6 261 18.1
2005-03-08 08:19:32 51°14.077 2°38.266 268.4 13.6 261 18.3
2005-03-08 08:19:37 51°14.075 2°38.236 269.9 13.6 261 18.6
2005-03-08 08:19:41 51°14.071 2°38.211 267.5 13.5 261 18.9
2005-03-08 08:19:47 51°14.066 2°38.178 265.6 13.5 259 19
2005-03-08 08:19:52 51°14.062 2°38.147 263.1 13.6 253 18.4
2005-03-08 08:19:57 51°14.054 2°38.119 262.1 13.4 258 18.2
2005-03-08 08:20:01 51°14.051 2°38.096 258.4 13.6 251 18.5
2005-03-08 08:20:07 51°14.043 2°38.065 258.9 13.4 254 19
2005-03-08 08:20:11 51°14.037 2°38.042 255.4 13.6 248 18.8
2005-03-08 08:20:17 51°14.03 2°38.008 256.8 13.9 248 19
2005-03-08 08:20:21 51°14.022 2°37.984 257.3 13.9 248 19.1
2005-03-08 08:20:27 51°14.013 2°37.952 250.9 13.9 248 19.2
2005-03-08 08:20:32 51°14.004 2°37.924 253.8 13.9 248 51.3
2005-03-08 08:20:37 51°13.995 2°37.9 249.6 13.5 239 15.2
2005-03-08 08:20:41 51°13.989 2°37.875 246.7 13.5 239 16.9
2005-03-08 08:20:47 51°13.977 2°37.847 249.3 13.5 239 17.8
2005-03-08 08:20:52 51°13.97 2°37.818 246.4 14 236 18.3
2005-03-08 08:20:57 51°13.96 2°37.794 248.9 13.6 247 18.6
2005-03-08 08:21:02 51°13.95 2°37.767 246.2 13.6 247 19
2005-03-08 08:21:07 51°13.94 2°37.74 246.7 13.8 244 19.1
2005-03-08 08:21:12 51°13.931 2°37.711 245.3 13.7 240 19.2
2005-03-08 08:21:17 51°13.921 2°37.689 246.4 13.5 244 19.3
2005-03-08 08:21:21 51°13.913 2°37.668 244.8 13.5 244 19.4
2005-03-08 08:21:27 51°13.901 2°37.633 244.4 13.8 238 19.6
2005-03-08 08:21:31 51°13.893 2°37.613 245.5 13.6 238 19.7
2005-03-08 08:21:37 51°13.883 2°37.584 244.2 13.6 238 19.7
2005-03-08 08:21:41 51°13.875 2°37.56 246.1 13.8 243 19.9
2005-03-08 08:21:47 51°13.864 2°37.531 246.2 13.9 239 19.9
2005-03-08 08:21:51 51°13.856 2°37.507 246.8 13.4 242 20
2005-03-08 08:21:57 51°13.846 2°37.477 244.6 13.4 242 20
2005-03-08 08:22:01 51°13.838 2°37.455 248.2 14.1 243 20.1
2005-03-08 08:22:07 51°13.827 2°37.425 247.3 13.7 243 20.2
2005-03-08 08:22:11 51°13.82 2°37.404 245.2 13.8 239 19.7
2005-03-08 08:22:17 51°13.81 2°37.372 246.3 13.8 239 19.8
2005-03-08 08:22:22 51°13.799 2°37.343 246.9 13.6 238 19.9
2005-03-08 08:22:27 51°13.79 2°37.316 246.4 13.6 238 19.7
2005-03-08 08:22:32 51°13.78 2°37.29 246.1 13.8 238 19.5
2005-03-08 08:22:37 51°13.771 2°37.263 244.7 13.8 239 19.7
2005-03-08 08:22:41 51°13.764 2°37.242 246.9 13.8 239 19.5
2005-03-08 08:22:47 51°13.754 2°37.213 247.3 13.8 239 19.9
2005-03-08 08:22:51 51°13.746 2°37.192 246.6 13.9 240 19.6
2005-03-08 08:22:57 51°13.735 2°37.158 245.9 13.9 240 20
2005-03-08 08:23:02 51°13.725 2°37.131 247.4 13.9 240 19.8
2005-03-08 08:23:07 51°13.718 2°37.106 246.7 13.7 242 19.8
2005-03-08 08:23:10 51°13.71 2°37.088 247.2 13.6 242 19.8
2005-03-08 08:23:17 51°13.697 2°37.051 246.7 13.6 242 19.5
2005-03-08 08:23:21 51°13.69 2°37.03 244.8 13.6 242 19.6
2005-03-08 08:23:27 51°13.679 2°37.002 247.5 13.6 242 19.6
2005-03-08 08:23:32 51°13.669 2°36.973 243.9 13.7 232 19.7
2005-03-08 08:23:37 51°13.661 2°36.947 245 13.6 245 19.4
2005-03-08 08:23:41 51°13.654 2°36.927 249.1 13.6 245 19.9
2005-03-08 08:23:47 51°13.644 2°36.898 247.5 13.3 243 19.8
2005-03-08 08:23:52 51°13.634 2°36.872 245.6 13.3 243 19.7
2005-03-08 08:23:57 51°13.626 2°36.845 245.7 13.3 243 19.8
2005-03-08 08:24:01 51°13.618 2°36.822 247.5 13.4 243 19.7
2005-03-08 08:24:07 51°13.608 2°36.792 244.6 13.6 238 19.6
2005-03-08 08:24:12 51°13.598 2°36.765 246.8 13.6 238 19.6
2005-03-08 08:24:17 51°13.59 2°36.735 246.9 13.6 238 19.6
2005-03-08 08:24:22 51°13.581 2°36.713 247.8 13.4 244 19.7
2005-03-08 08:24:27 51°13.572 2°36.687 246.1 13.4 244 19.4
2005-03-08 08:24:31 51°13.564 2°36.665 245.9 13.8 242 19.2
2005-03-08 08:24:37 51°13.555 2°36.632 248.3 13.6 246 19.7
2005-03-08 08:24:41 51°13.546 2°36.61 248.6 13.4 246 19.2
2005-03-08 08:24:47 51°13.536 2°36.581 246.5 13.4 246 19.5
2005-03-08 08:24:51 51°13.527 2°36.557 244.6 13.7 237 18.4
2005-03-08 08:24:57 51°13.515 2°36.528 243.8 13.7 237 17.5
2005-03-08 08:25:01 51°13.507 2°36.507 243 13.6 238 17.2
2005-03-08 08:25:07 51°13.495 2°36.476 244.6 13.6 238 17.4
2005-03-08 08:25:11 51°13.489 2°36.458 242.9 13.9 235 17.3
2005-03-08 08:25:17 51°13.476 2°36.425 244 13.7 240 17.8
2005-03-08 08:25:22 51°13.467 2°36.402 242.6 13.6 235 17.8
2005-03-08 08:25:27 51°13.458 2°36.375 243.6 13.4 242 17.7
2005-03-08 08:25:31 51°13.448 2°36.353 244 13.4 242 18.1
2005-03-08 08:25:37 51°13.437 2°36.323 244.5 13.4 245 17.8
2005-03-08 08:25:42 51°13.427 2°36.297 243.6 13.5 237 17.5
2005-03-08 08:25:47 51°13.419 2°36.273 243.5 13.5 237 17.7
2005-03-08 08:25:50 51°13.412 2°36.256 244.1 13.5 238 17.7
2005-03-08 08:25:57 51°13.399 2°36.223 243.8 13.6 240 17.7
2005-03-08 08:26:01 51°13.39 2°36.201 242.4 13.3 238 17.5
2005-03-08 08:26:07 51°13.378 2°36.172 241.4 13.5 238 17.7
2005-03-08 08:26:11 51°13.371 2°36.152 242.8 13.5 238 17.8
2005-03-08 08:26:17 51°13.358 2°36.122 245.2 13.5 238 17.8
2005-03-08 08:26:21 51°13.352 2°36.101 241 13.5 238 17.5
2005-03-08 08:26:27 51°13.339 2°36.067 245.4 13.6 245 17.5
2005-03-08 08:26:32 51°13.331 2°36.041 245 13.3 237 17.6
2005-03-08 08:26:37 51°13.32 2°36.015 245.2 13.5 241 17.7
2005-03-08 08:26:41 51°13.314 2°35.995 244.7 13.9 237 17.8
2005-03-08 08:26:47 51°13.302 2°35.968 245.4 13.9 237 17.7
2005-03-08 08:26:52 51°13.293 2°35.938 242.9 13.8 242 17.7
2005-03-08 08:26:57 51°13.284 2°35.913 245.1 13.8 242 18
2005-03-08 08:27:02 51°13.274 2°35.889 247.3 13.1 244 17.8
2005-03-08 08:27:07 51°13.266 2°35.866 243.1 12.9 235 18
2005-03-08 08:27:11 51°13.255 2°35.847 242.4 13.6 239 17.7
2005-03-08 08:27:17 51°13.245 2°35.814 242.1 14.2 233 17.9
2005-03-08 08:27:21 51°13.236 2°35.794 243.7 14.2 233 17.6
2005-03-08 08:27:27 51°13.223 2°35.768 240.2 12.8 234 17.4
2005-03-08 08:27:31 51°13.216 2°35.746 239.9 13.6 243 17.5
2005-03-08 08:27:37 51°13.201 2°35.715 242.4 13.6 243 17.2
2005-03-08 08:27:41 51°13.195 2°35.694 240.9 13.6 243 17.5
2005-03-08 08:27:47 51°13.181 2°35.669 242 13.6 243 17.5
2005-03-08 08:27:51 51°13.176 2°35.646 241.6 13.7 238 17.4
2005-03-08 08:27:57 51°13.16 2°35.615 243.3 13.5 243 17.3
2005-03-08 08:28:01 51°13.155 2°35.596 241.4 13.5 242 17.7
2005-03-08 08:28:07 51°13.142 2°35.568 243.2 13.5 242 17.5
2005-03-08 08:28:12 51°13.132 2°35.543 240.2 13.3 231 17.4
2005-03-08 08:28:17 51°13.12 2°35.518 242.3 13.6 241 17.2
2005-03-08 08:28:21 51°13.113 2°35.496 241.6 13.6 241 17.2
2005-03-08 08:28:27 51°13.101 2°35.469 242.2 13.6 241 17.5
2005-03-08 08:28:31 51°13.093 2°35.449 241.9 13.6 241 17
2005-03-08 08:28:37 51°13.081 2°35.418 241.7 13.4 237 17.5
2005-03-08 08:28:42 51°13.069 2°35.393 241.2 13.4 237 17.1
2005-03-08 08:28:47 51°13.059 2°35.368 241.8 13.2 238 16.9
2005-03-08 08:28:51 51°13.051 2°35.348 240.6 13.7 235 16.8
2005-03-08 08:28:57 51°13.04 2°35.321 243.1 13.7 235 16.8
2005-03-08 08:29:01 51°13.031 2°35.299 241.6 13.2 235 16.6
2005-03-08 08:29:07 51°13.02 2°35.271 241.2 13.2 239 16.3
2005-03-08 08:29:11 51°13.011 2°35.248 241.5 13.4 236 16.5
2005-03-08 08:29:17 51°13 2°35.222 243.8 13.4 236 16.2
2005-03-08 08:29:21 51°12.992 2°35.2 242.3 13.1 232 16
2005-03-08 08:29:27 51°12.978 2°35.174 242.2 13.5 237 15.7
2005-03-08 08:29:32 51°12.97 2°35.146 240.3 13.5 237 15.6
2005-03-08 08:29:37 51°12.957 2°35.122 243 13.5 237 15.4
2005-03-08 08:29:41 51°12.95 2°35.102 240.4 13.2 231 15.4
2005-03-08 08:29:47 51°12.938 2°35.074 241.3 13.2 240 15.2
2005-03-08 08:29:51 51°12.93 2°35.053 242 13.8 234 15.2
2005-03-08 08:29:57 51°12.919 2°35.025 244.9 13.2 242 14.7
2005-03-08 08:30:02 51°12.908 2°34.998 239.5 13.2 242 14.8
2005-03-08 08:30:07 51°12.899 2°34.974 242.4 13.6 242 14.6
2005-03-08 08:30:11 51°12.891 2°34.955 243.9 13.5 236 14.7
2005-03-08 08:30:17 51°12.879 2°34.925 242.4 13.1 237 14.7
2005-03-08 08:30:22 51°12.868 2°34.902 242.4 13.3 236 14.3
2005-03-08 08:30:27 51°12.858 2°34.876 241.6 13.3 236 14.2
2005-03-08 08:30:31 51°12.849 2°34.857 242.4 13.3 236 13.9
2005-03-08 08:30:37 51°12.838 2°34.827 241.3 13 236 14.1
2005-03-08 08:30:41 51°12.827 2°34.806 240.8 13.8 232 13.9
2005-03-08 08:30:47 51°12.816 2°34.778 242 13.8 232 14.1
2005-03-08 08:30:51 51°12.806 2°34.758 239.8 13.1 230 14.2
2005-03-08 08:30:57 51°12.794 2°34.732 238 13.1 232 14.1
2005-03-08 08:31:01 51°12.783 2°34.71 237.7 13.8 232 14.3
2005-03-08 08:31:07 51°12.772 2°34.684 238.8 13.3 235 14.4
2005-03-08 08:31:12 51°12.758 2°34.659 238 13.3 227 14.3
2005-03-08 08:31:17 51°12.748 2°34.635 235.1 13.9 232 14.1
2005-03-08 08:31:21 51°12.739 2°34.616 239.6 13.7 237 14.3
2005-03-08 08:31:27 51°12.725 2°34.591 236.6 13.7 237 14.1
2005-03-08 08:31:31 51°12.715 2°34.573 234.8 13.2 232 14.1
2005-03-08 08:31:37 51°12.701 2°34.543 236.4 13.7 232 14.1
2005-03-08 08:31:41 51°12.69 2°34.523 235.6 13.8 232 14.3
2005-03-08 08:31:47 51°12.678 2°34.499 236.1 13.4 231 14.5
2005-03-08 08:31:52 51°12.664 2°34.476 232.9 13.4 231 14.6
2005-03-08 08:31:57 51°12.651 2°34.451 233.9 13.4 231 14.3
2005-03-08 08:32:02 51°12.639 2°34.43 234.4 13.8 230 14.4
2005-03-08 08:32:07 51°12.628 2°34.408 232.9 13.8 230 14.6
2005-03-08 08:32:12 51°12.615 2°34.387 234 13.8 230 14.6
2005-03-08 08:32:17 51°12.604 2°34.363 232.7 13.3 228 15.5
2005-03-08 08:32:21 51°12.591 2°34.345 234.3 13.3 228 14.7
2005-03-08 08:32:27 51°12.579 2°34.318 231.4 13.9 227 15.5
2005-03-08 08:32:32 51°12.564 2°34.296 235.8 13.6 235 15.6
2005-03-08 08:32:37 51°12.553 2°34.275 232.1 13.5 221 15.4
2005-03-08 08:32:41 51°12.543 2°34.254 231.7 13.5 221 16
2005-03-08 08:32:47 51°12.526 2°34.23 234.2 13.5 221 15.8
2005-03-08 08:32:52 51°12.516 2°34.207 231.8 13.5 221 15.7
2005-03-08 08:32:57 51°12.503 2°34.19 234.7 12.7 229 16.1
2005-03-08 08:33:01 51°12.493 2°34.171 229.3 12.7 229 16.1
2005-03-08 08:33:07 51°12.48 2°34.141 235.6 14 234 16.3
2005-03-08 08:33:12 51°12.467 2°34.123 235.6 12.9 227 16.6
2005-03-08 08:33:17 51°12.455 2°34.101 231.7 12.9 227 16.5
2005-03-08 08:33:22 51°12.442 2°34.08 232 13.2 228 16.8
2005-03-08 08:33:27 51°12.429 2°34.057 231.6 13.7 227 17.1
2005-03-08 08:33:31 51°12.42 2°34.04 232.9 13.6 229 17.2
2005-03-08 08:33:37 51°12.404 2°34.015 232 13.2 227 17.2
2005-03-08 08:33:41 51°12.394 2°33.995 232.9 13.2 230 17.1
2005-03-08 08:33:47 51°12.379 2°33.97 232.1 13.4 226 17.6
2005-03-08 08:33:51 51°12.367 2°33.951 232.5 13.5 227 17.8
2005-03-08 08:33:57 51°12.352 2°33.927 231.1 13.5 227 17.6
2005-03-08 08:34:02 51°12.34 2°33.909 230.8 13.5 227 17.5
2005-03-08 08:34:07 51°12.327 2°33.889 229.1 13.5 227 17.8
2005-03-08 08:34:12 51°12.313 2°33.865 229.1 13.4 226 18.3
2005-03-08 08:34:17 51°12.298 2°33.848 229.8 13 226 18
2005-03-08 08:34:21 51°12.29 2°33.828 227.4 13.2 224 18.4
2005-03-08 08:34:27 51°12.273 2°33.809 230.6 13.2 220 18.4
2005-03-08 08:34:30 51°12.264 2°33.793 227.2 13.2 220 18.6
2005-03-08 08:34:37 51°12.246 2°33.769 227.5 13.2 220 18.8
2005-03-08 08:34:41 51°12.234 2°33.751 226.4 13.2 220 19
2005-03-08 08:34:47 51°12.219 2°33.729 228.1 13.3 221 19.2
2005-03-08 08:34:51 51°12.205 2°33.711 227.5 13.6 219 19.1
2005-03-08 08:34:57 51°12.19 2°33.686 227.9 13.6 219 19.3
2005-03-08 08:35:02 51°12.175 2°33.67 227.9 13 222 19.4
2005-03-08 08:35:07 51°12.163 2°33.651 224.4 13.5 216 19.6
2005-03-08 08:35:11 51°12.151 2°33.638 225.1 13.1 220 20.1
2005-03-08 08:35:17 51°12.132 2°33.618 223.3 13.1 216 20
2005-03-08 08:35:21 51°12.119 2°33.6 218.9 13.1 216 20.2
2005-03-08 08:35:27 51°12.103 2°33.582 224.7 13.3 224 20.4
2005-03-08 08:35:32 51°12.088 2°33.563 219.9 13.2 210 20.6
2005-03-08 08:35:37 51°12.074 2°33.544 222.9 13.2 210 20.6
2005-03-08 08:35:42 51°12.058 2°33.528 222.5 13.2 210 20.5
2005-03-08 08:35:47 51°12.043 2°33.51 220.3 13.3 217 20.7
2005-03-08 08:35:52 51°12.027 2°33.495 219.1 13.3 217 20.9
2005-03-08 08:35:57 51°12.011 2°33.476 217.7 13.4 213 21
2005-03-08 08:36:02 51°11.995 2°33.464 218.9 13.5 212 20.9
2005-03-08 08:36:07 51°11.981 2°33.446 217 13.5 212 21
2005-03-08 08:36:11 51°11.968 2°33.437 215.8 13.5 212 20.8
2005-03-08 08:36:17 51°11.952 2°33.416 214.8 12.7 209 20.8
2005-03-08 08:36:21 51°11.942 2°33.405 220.5 11.7 220 20.9
2005-03-08 08:36:27 51°11.93 2°33.39 222 11.7 220 20.8
2005-03-08 08:36:31 51°11.923 2°33.38 223 11.7 220 20.8
2005-03-08 08:36:37 51°11.911 2°33.363 226.7 8.8 220 20.9
2005-03-08 08:36:41 51°11.905 2°33.354 228.2 8.6 222 20.9
2005-03-08 08:36:47 51°11.896 2°33.342 230.8 7.8 225 20.6
2005-03-08 08:36:51 51°11.891 2°33.333 230.3 7.5 221 21
2005-03-08 08:36:57 51°11.883 2°33.322 232.1 6.7 227 20.9
2005-03-08 08:37:01 51°11.878 2°33.316 230.4 6.2 219 20.6
2005-03-08 08:37:07 51°11.87 2°33.308 227 6.2 219 20.7
2005-03-08 08:37:12 51°11.864 2°33.302 222.9 5.6 213 20.9
2005-03-08 08:37:17 51°11.857 2°33.298 218.4 5.2 210 20.8
2005-03-08 08:37:22 51°11.851 2°33.293 213.3 4.9 203 20.8
2005-03-08 08:37:27 51°11.845 2°33.292 209.4 4.7 202 20.3
2005-03-08 08:37:31 51°11.84 2°33.289 206.2 4.4 197 20.4
2005-03-08 08:37:37 51°11.834 2°33.288 201.9 4.4 197 20.3
2005-03-08 08:37:42 51°11.828 2°33.287 198.8 4 186 20.4
2005-03-08 08:37:47 51°11.823 2°33.287 195.4 3.9 185 20.4
2005-03-08 08:37:51 51°11.819 2°33.287 194.3 3.9 185 20.5
2005-03-08 08:37:57 51°11.813 2°33.287 192.6 3.6 180 20.1
2005-03-08 08:38:02 51°11.808 2°33.287 191.5 3.4 181 19.7
2005-03-08 08:38:07 51°11.804 2°33.288 191.1 3.4 181 19.2
2005-03-08 08:38:11 51°11.801 2°33.288 191.2 3 175 19.2
2005-03-08 08:38:17 51°11.798 2°33.288 193.6 2.5 175 19.2
2005-03-08 08:38:21 51°11.795 2°33.289 198.1 2.1 174 19.3
2005-03-08 08:38:27 51°11.792 2°33.289 201.7 2.1 174 19.5
2005-03-08 08:38:31 51°11.79 2°33.289 205.4 1.9 176 19.5
2005-03-08 08:38:37 51°11.787 2°33.29 208.2 1.9 176 19.6
2005-03-08 08:38:42 51°11.784 2°33.29 210.1 1.9 177 19.5
2005-03-08 08:38:47 51°11.782 2°33.29 212.1 1.8 180 19.4
2005-03-08 08:38:51 51°11.78 2°33.29 212.6 1.7 180 18.7
2005-03-08 08:38:57 51°11.777 2°33.29 214.7 1.7 180 18.5
2005-03-08 08:39:02 51°11.775 2°33.29 215.8 1.6 179 18.4
2005-03-08 08:39:07 51°11.773 2°33.29 217 1.6 179 18.2
2005-03-08 08:39:11 51°11.771 2°33.29 217 1.5 188 18
2005-03-08 08:39:18 51°11.769 2°33.29 217.9 1.5 188 18.2
2005-03-08 08:39:21 51°11.767 2°33.29 219.9 1.4 179 18.4
2005-03-08 08:39:27 51°11.765 2°33.29 221.3 1.4 176 18.8
2005-03-08 08:39:31 51°11.764 2°33.29 222 1.3 176 18.9
2005-03-08 08:39:37 51°11.761 2°33.29 222.2 1.3 176 19.2
2005-03-08 08:39:42 51°11.76 2°33.291 222.8 1.3 178 19.2
2005-03-08 08:39:47 51°11.758 2°33.291 223.2 1.3 178 19.2
2005-03-08 08:39:51 51°11.757 2°33.292 223.6 1.3 178 19.2
2005-03-08 08:39:57 51°11.754 2°33.292 224.9 1.3 178 19.2
2005-03-08 08:40:01 51°11.753 2°33.292 224.9 1.3 178 19
2005-03-08 08:40:07 51°11.751 2°33.292 225.9 1.4 170 18.9
2005-03-08 08:40:11 51°11.75 2°33.293 227.1 1.3 170 18.7
2005-03-08 08:40:17 51°11.748 2°33.293 228.3 1.1 170 18.4
2005-03-08 08:40:21 51°11.746 2°33.294 228.4 1.1 170 18.6
2005-03-08 08:40:27 51°11.744 2°33.294 230.1 1.2 171 18.6
2005-03-08 08:40:32 51°11.743 2°33.294 230 1.2 171 18.6
2005-03-08 08:40:37 51°11.741 2°33.294 229.9 1.3 172 18.9
2005-03-08 08:40:42 51°11.739 2°33.294 230.7 1.3 172 18.9
2005-03-08 08:40:47 51°11.738 2°33.294 230.5 1.3 172 18.9
2005-03-08 08:40:52 51°11.736 2°33.294 230.1 1.3 172 18.9
2005-03-08 08:40:57 51°11.734 2°33.295 229.8 1.2 188 18.8
2005-03-08 08:41:01 51°11.733 2°33.294 228.9 1.2 188 18.4
2005-03-08 08:41:07 51°11.73 2°33.294 228.6 1.5 183 17.6
2005-03-08 08:41:12 51°11.728 2°33.294 228.8 1.3 184 17.3
2005-03-08 08:41:17 51°11.727 2°33.294 228.9 1.3 180 17.4
2005-03-08 08:41:21 51°11.725 2°33.293 228.8 1.4 184 17.6
2005-03-08 08:41:26 51°11.723 2°33.292 228.7 1.6 183 17.8
2005-03-08 08:41:31 51°11.72 2°33.292 228.9 1.6 183 18
2005-03-08 08:41:37 51°11.718 2°33.29 229 1.8 191 18.1
2005-03-08 08:41:41 51°11.715 2°33.288 229.2 2.1 202 18.3
2005-03-08 08:41:47 51°11.712 2°33.287 229.6 2.2 200 18.5
2005-03-08 08:41:51 51°11.709 2°33.285 230.2 2.2 200 18.6
2005-03-08 08:41:57 51°11.706 2°33.282 230.8 2.2 200 18.7
2005-03-08 08:42:01 51°11.703 2°33.28 231.5 2.2 200 18.5
2005-03-08 08:42:06 51°11.7 2°33.277 231.5 2.6 205 17.5
2005-03-08 08:42:11 51°11.697 2°33.274 232.3 2.8 209 17.4
2005-03-08 08:42:17 51°11.692 2°33.27 232.9 2.8 214 17.4
2005-03-08 08:42:21 51°11.69 2°33.267 232.7 2.8 219 17.6
2005-03-08 08:42:27 51°11.686 2°33.263 233.9 2.8 219 17.9
2005-03-08 08:42:31 51°11.683 2°33.259 235.2 3 217 18.3
2005-03-08 08:42:37 51°11.679 2°33.255 235.6 3 217 18.1
2005-03-08 08:42:41 51°11.676 2°33.252 236 3.1 216 17.2
2005-03-08 08:42:47 51°11.673 2°33.247 236.4 3.2 216 17.4